sensor_id;sensor_type;location;lat;lon;timestamp;temperature;humidity
32139;DHT22;18644;48.700;9.210;2023-05-10T00:02:11;17.60;65.40
32139;DHT22;18644;48.700;9.210;2023-05-10T00:04:38;17.60;65.40
32139;DHT22;18644;48.700;9.210;2023-05-10T00:07:05;17.60;66.10
32139;DHT22;18644;48.700;9.210;2023-05-10T00:09:33;17.60;65.30
32139;DHT22;18644;48.700;9.210;2023-05-10T00:12:00;17.60;65.40
32139;DHT22;18644;48.700;9.210;2023-05-10T00:14:27;17.60;65.40
32139;DHT22;18644;48.700;9.210;2023-05-10T00:16:54;17.60;65.40
32139;DHT22;18644;48.700;9.210;2023-05-10T00:19:20;17.60;65.60
32139;DHT22;18644;48.700;9.210;2023-05-10T00:21:47;17.50;65.70
32139;DHT22;18644;48.700;9.210;2023-05-10T00:24:14;17.50;66.00
32139;DHT22;18644;48.700;9.210;2023-05-10T00:26:42;17.50;65.90
32139;DHT22;18644;48.700;9.210;2023-05-10T00:29:09;17.50;66.00
32139;DHT22;18644;48.700;9.210;2023-05-10T00:31:36;17.50;65.70
32139;DHT22;18644;48.700;9.210;2023-05-10T00:34:03;17.50;65.40
32139;DHT22;18644;48.700;9.210;2023-05-10T00:36:30;17.40;65.20
32139;DHT22;18644;48.700;9.210;2023-05-10T00:38:57;17.30;64.90
32139;DHT22;18644;48.700;9.210;2023-05-10T00:41:24;17.20;64.70
32139;DHT22;18644;48.700;9.210;2023-05-10T00:43:52;17.20;64.80
32139;DHT22;18644;48.700;9.210;2023-05-10T00:46:19;17.20;65.00
32139;DHT22;18644;48.700;9.210;2023-05-10T00:48:47;17.10;65.00
32139;DHT22;18644;48.700;9.210;2023-05-10T00:51:14;17.10;65.00
32139;DHT22;18644;48.700;9.210;2023-05-10T00:53:41;17.10;65.00
32139;DHT22;18644;48.700;9.210;2023-05-10T00:56:09;17.00;65.00
32139;DHT22;18644;48.700;9.210;2023-05-10T00:58:36;17.00;65.00
32139;DHT22;18644;48.700;9.210;2023-05-10T01:01:05;17.00;65.00
32139;DHT22;18644;48.700;9.210;2023-05-10T01:03:32;17.00;65.00
32139;DHT22;18644;48.700;9.210;2023-05-10T01:05:59;16.90;65.00
32139;DHT22;18644;48.700;9.210;2023-05-10T01:08:26;16.90;65.00
32139;DHT22;18644;48.700;9.210;2023-05-10T01:10:54;16.90;65.10
32139;DHT22;18644;48.700;9.210;2023-05-10T01:13:29;16.80;65.00
32139;DHT22;18644;48.700;9.210;2023-05-10T01:15:58;16.80;65.10
32139;DHT22;18644;48.700;9.210;2023-05-10T01:18:29;16.80;65.00
32139;DHT22;18644;48.700;9.210;2023-05-10T01:21:15;16.70;65.10
32139;DHT22;18644;48.700;9.210;2023-05-10T01:27:07;16.70;65.30
32139;DHT22;18644;48.700;9.210;2023-05-10T01:30:05;16.60;65.40
32139;DHT22;18644;48.700;9.210;2023-05-10T01:32:43;16.70;65.60
32139;DHT22;18644;48.700;9.210;2023-05-10T01:35:17;16.60;65.40
32139;DHT22;18644;48.700;9.210;2023-05-10T01:37:56;16.60;65.40
32139;DHT22;18644;48.700;9.210;2023-05-10T01:40:32;16.60;65.50
32139;DHT22;18644;48.700;9.210;2023-05-10T01:43:04;16.60;65.40
32139;DHT22;18644;48.700;9.210;2023-05-10T01:45:41;16.60;65.40
32139;DHT22;18644;48.700;9.210;2023-05-10T01:48:14;16.60;65.50
32139;DHT22;18644;48.700;9.210;2023-05-10T01:50:43;16.60;65.50
32139;DHT22;18644;48.700;9.210;2023-05-10T01:53:11;16.60;65.40
32139;DHT22;18644;48.700;9.210;2023-05-10T01:55:44;16.60;65.40
32139;DHT22;18644;48.700;9.210;2023-05-10T01:58:15;16.50;65.40
32139;DHT22;18644;48.700;9.210;2023-05-10T02:00:47;16.50;65.40
32139;DHT22;18644;48.700;9.210;2023-05-10T02:03:18;16.50;65.50
32139;DHT22;18644;48.700;9.210;2023-05-10T02:05:48;16.50;65.60
32139;DHT22;18644;48.700;9.210;2023-05-10T02:08:17;16.50;65.70
32139;DHT22;18644;48.700;9.210;2023-05-10T02:10:46;16.50;66.50
32139;DHT22;18644;48.700;9.210;2023-05-10T02:13:16;16.50;65.80
32139;DHT22;18644;48.700;9.210;2023-05-10T02:15:44;16.50;65.80
32139;DHT22;18644;48.700;9.210;2023-05-10T02:18:14;16.50;65.80
32139;DHT22;18644;48.700;9.210;2023-05-10T02:20:43;16.50;65.90
32139;DHT22;18644;48.700;9.210;2023-05-10T02:23:12;16.50;65.90
32139;DHT22;18644;48.700;9.210;2023-05-10T02:25:41;16.50;65.90
32139;DHT22;18644;48.700;9.210;2023-05-10T02:28:10;16.50;65.90
32139;DHT22;18644;48.700;9.210;2023-05-10T02:30:39;16.50;65.90
32139;DHT22;18644;48.700;9.210;2023-05-10T02:33:06;16.50;65.90
32139;DHT22;18644;48.700;9.210;2023-05-10T02:35:34;16.50;65.90
32139;DHT22;18644;48.700;9.210;2023-05-10T02:38:03;16.50;65.90
32139;DHT22;18644;48.700;9.210;2023-05-10T02:40:31;16.40;65.90
32139;DHT22;18644;48.700;9.210;2023-05-10T02:42:59;16.40;65.90
32139;DHT22;18644;48.700;9.210;2023-05-10T02:45:31;16.40;65.90
32139;DHT22;18644;48.700;9.210;2023-05-10T02:47:58;16.40;66.00
32139;DHT22;18644;48.700;9.210;2023-05-10T02:50:27;16.40;66.10
32139;DHT22;18644;48.700;9.210;2023-05-10T02:53:00;16.40;66.20
32139;DHT22;18644;48.700;9.210;2023-05-10T02:55:35;16.40;66.20
32139;DHT22;18644;48.700;9.210;2023-05-10T02:58:03;16.40;66.20
32139;DHT22;18644;48.700;9.210;2023-05-10T03:00:31;16.40;66.20
32139;DHT22;18644;48.700;9.210;2023-05-10T03:02:58;16.40;66.10
32139;DHT22;18644;48.700;9.210;2023-05-10T03:05:25;16.40;66.10
32139;DHT22;18644;48.700;9.210;2023-05-10T03:07:52;16.40;66.00
32139;DHT22;18644;48.700;9.210;2023-05-10T03:10:23;16.40;65.90
32139;DHT22;18644;48.700;9.210;2023-05-10T03:13:06;16.40;66.00
32139;DHT22;18644;48.700;9.210;2023-05-10T03:15:40;16.40;65.90
32139;DHT22;18644;48.700;9.210;2023-05-10T03:18:12;16.40;66.00
32139;DHT22;18644;48.700;9.210;2023-05-10T03:20:42;16.40;66.00
32139;DHT22;18644;48.700;9.210;2023-05-10T03:23:13;16.30;66.00
32139;DHT22;18644;48.700;9.210;2023-05-10T03:25:50;16.30;66.00
32139;DHT22;18644;48.700;9.210;2023-05-10T03:28:18;16.30;66.10
32139;DHT22;18644;48.700;9.210;2023-05-10T03:30:46;16.30;66.10
32139;DHT22;18644;48.700;9.210;2023-05-10T03:33:13;16.30;66.20
32139;DHT22;18644;48.700;9.210;2023-05-10T03:35:40;16.30;66.20
32139;DHT22;18644;48.700;9.210;2023-05-10T03:38:07;16.30;66.30
32139;DHT22;18644;48.700;9.210;2023-05-10T03:40:34;16.30;66.30
32139;DHT22;18644;48.700;9.210;2023-05-10T03:43:02;16.30;66.40
32139;DHT22;18644;48.700;9.210;2023-05-10T03:45:29;16.30;66.40
32139;DHT22;18644;48.700;9.210;2023-05-10T03:47:57;16.30;66.40
32139;DHT22;18644;48.700;9.210;2023-05-10T03:50:24;16.30;66.50
32139;DHT22;18644;48.700;9.210;2023-05-10T03:52:52;16.30;66.50
32139;DHT22;18644;48.700;9.210;2023-05-10T03:55:19;16.30;66.40
32139;DHT22;18644;48.700;9.210;2023-05-10T03:57:46;16.30;66.40
32139;DHT22;18644;48.700;9.210;2023-05-10T04:00:16;16.30;66.50
32139;DHT22;18644;48.700;9.210;2023-05-10T04:02:43;16.30;66.40
32139;DHT22;18644;48.700;9.210;2023-05-10T04:05:10;16.30;66.30
32139;DHT22;18644;48.700;9.210;2023-05-10T04:07:37;16.30;66.30
32139;DHT22;18644;48.700;9.210;2023-05-10T04:10:05;16.30;66.30
32139;DHT22;18644;48.700;9.210;2023-05-10T04:12:33;16.30;66.30
32139;DHT22;18644;48.700;9.210;2023-05-10T04:15:00;16.30;66.40
32139;DHT22;18644;48.700;9.210;2023-05-10T04:17:28;16.30;66.30
32139;DHT22;18644;48.700;9.210;2023-05-10T04:19:55;16.20;66.30
32139;DHT22;18644;48.700;9.210;2023-05-10T04:22:22;16.20;66.40
32139;DHT22;18644;48.700;9.210;2023-05-10T04:24:49;16.20;66.50
32139;DHT22;18644;48.700;9.210;2023-05-10T04:27:16;16.20;66.50
32139;DHT22;18644;48.700;9.210;2023-05-10T04:29:43;16.20;66.60
32139;DHT22;18644;48.700;9.210;2023-05-10T04:32:10;16.20;66.60
32139;DHT22;18644;48.700;9.210;2023-05-10T04:34:38;16.10;66.60
32139;DHT22;18644;48.700;9.210;2023-05-10T04:37:05;16.10;66.80
32139;DHT22;18644;48.700;9.210;2023-05-10T04:39:32;16.10;66.80
32139;DHT22;18644;48.700;9.210;2023-05-10T04:42:00;16.10;66.80
32139;DHT22;18644;48.700;9.210;2023-05-10T04:44:28;16.20;67.00
32139;DHT22;18644;48.700;9.210;2023-05-10T04:46:55;16.10;67.00
32139;DHT22;18644;48.700;9.210;2023-05-10T04:49:22;16.10;67.00
32139;DHT22;18644;48.700;9.210;2023-05-10T04:51:50;16.20;67.20
32139;DHT22;18644;48.700;9.210;2023-05-10T04:54:17;16.20;67.30
32139;DHT22;18644;48.700;9.210;2023-05-10T04:56:43;16.20;67.30
32139;DHT22;18644;48.700;9.210;2023-05-10T04:59:10;16.20;67.30
32139;DHT22;18644;48.700;9.210;2023-05-10T05:01:37;16.20;67.30
32139;DHT22;18644;48.700;9.210;2023-05-10T05:04:04;16.20;67.40
32139;DHT22;18644;48.700;9.210;2023-05-10T05:06:32;16.30;67.40
32139;DHT22;18644;48.700;9.210;2023-05-10T05:09:00;16.30;67.40
32139;DHT22;18644;48.700;9.210;2023-05-10T05:11:27;16.30;67.40
32139;DHT22;18644;48.700;9.210;2023-05-10T05:13:54;16.30;67.40
32139;DHT22;18644;48.700;9.210;2023-05-10T05:16:21;16.30;67.50
32139;DHT22;18644;48.700;9.210;2023-05-10T05:18:48;16.40;67.70
32139;DHT22;18644;48.700;9.210;2023-05-10T05:21:15;16.40;67.80
32139;DHT22;18644;48.700;9.210;2023-05-10T05:23:42;16.50;67.70
32139;DHT22;18644;48.700;9.210;2023-05-10T05:26:11;16.50;67.70
32139;DHT22;18644;48.700;9.210;2023-05-10T05:28:38;16.50;67.70
32139;DHT22;18644;48.700;9.210;2023-05-10T05:31:05;16.60;67.70
32139;DHT22;18644;48.700;9.210;2023-05-10T05:33:32;16.60;67.60
32139;DHT22;18644;48.700;9.210;2023-05-10T05:36:00;16.70;67.70
32139;DHT22;18644;48.700;9.210;2023-05-10T05:38:31;16.70;67.70
32139;DHT22;18644;48.700;9.210;2023-05-10T05:40:58;16.70;67.70
32139;DHT22;18644;48.700;9.210;2023-05-10T05:43:26;16.80;67.70
32139;DHT22;18644;48.700;9.210;2023-05-10T05:45:53;16.80;67.70
32139;DHT22;18644;48.700;9.210;2023-05-10T05:48:21;16.90;67.80
32139;DHT22;18644;48.700;9.210;2023-05-10T05:50:48;16.90;67.90
32139;DHT22;18644;48.700;9.210;2023-05-10T05:53:15;16.90;67.80
32139;DHT22;18644;48.700;9.210;2023-05-10T05:55:51;17.00;67.70
32139;DHT22;18644;48.700;9.210;2023-05-10T05:58:19;17.00;67.60
32139;DHT22;18644;48.700;9.210;2023-05-10T06:00:47;17.10;67.40
32139;DHT22;18644;48.700;9.210;2023-05-10T06:03:14;17.10;67.40
32139;DHT22;18644;48.700;9.210;2023-05-10T06:05:41;17.10;67.40
32139;DHT22;18644;48.700;9.210;2023-05-10T06:08:08;17.10;67.30
32139;DHT22;18644;48.700;9.210;2023-05-10T06:10:35;17.20;67.20
32139;DHT22;18644;48.700;9.210;2023-05-10T06:13:02;17.20;67.30
32139;DHT22;18644;48.700;9.210;2023-05-10T06:15:29;17.20;67.50
32139;DHT22;18644;48.700;9.210;2023-05-10T06:17:57;17.30;67.30
32139;DHT22;18644;48.700;9.210;2023-05-10T06:20:24;17.30;67.20
32139;DHT22;18644;48.700;9.210;2023-05-10T06:22:50;17.30;67.30
32139;DHT22;18644;48.700;9.210;2023-05-10T06:25:17;17.40;67.40
32139;DHT22;18644;48.700;9.210;2023-05-10T06:27:44;17.40;67.00
32139;DHT22;18644;48.700;9.210;2023-05-10T06:30:12;17.50;66.90
32139;DHT22;18644;48.700;9.210;2023-05-10T06:32:40;17.50;66.70
32139;DHT22;18644;48.700;9.210;2023-05-10T06:35:10;17.50;66.60
32139;DHT22;18644;48.700;9.210;2023-05-10T06:37:37;17.50;66.70
32139;DHT22;18644;48.700;9.210;2023-05-10T06:40:06;17.60;66.60
32139;DHT22;18644;48.700;9.210;2023-05-10T06:42:34;17.60;66.50
32139;DHT22;18644;48.700;9.210;2023-05-10T06:45:01;17.60;66.20
32139;DHT22;18644;48.700;9.210;2023-05-10T06:47:28;17.60;66.10
32139;DHT22;18644;48.700;9.210;2023-05-10T06:49:55;17.60;66.10
32139;DHT22;18644;48.700;9.210;2023-05-10T06:52:23;17.60;66.20
32139;DHT22;18644;48.700;9.210;2023-05-10T06:54:50;17.70;66.30
32139;DHT22;18644;48.700;9.210;2023-05-10T06:57:17;17.70;67.10
32139;DHT22;18644;48.700;9.210;2023-05-10T06:59:45;17.70;66.20
32139;DHT22;18644;48.700;9.210;2023-05-10T07:02:11;17.70;66.00
32139;DHT22;18644;48.700;9.210;2023-05-10T07:04:40;17.70;65.90
32139;DHT22;18644;48.700;9.210;2023-05-10T07:07:07;17.70;66.10
32139;DHT22;18644;48.700;9.210;2023-05-10T07:09:35;17.70;66.00
32139;DHT22;18644;48.700;9.210;2023-05-10T07:12:02;17.70;66.00
32139;DHT22;18644;48.700;9.210;2023-05-10T07:14:29;17.70;66.00
32139;DHT22;18644;48.700;9.210;2023-05-10T07:16:56;17.70;66.00
32139;DHT22;18644;48.700;9.210;2023-05-10T07:19:23;17.80;65.90
32139;DHT22;18644;48.700;9.210;2023-05-10T07:21:50;17.70;65.70
32139;DHT22;18644;48.700;9.210;2023-05-10T07:24:17;17.80;65.90
32139;DHT22;18644;48.700;9.210;2023-05-10T07:26:45;17.80;66.00
32139;DHT22;18644;48.700;9.210;2023-05-10T07:29:12;17.90;66.40
32139;DHT22;18644;48.700;9.210;2023-05-10T07:31:39;17.90;66.50
32139;DHT22;18644;48.700;9.210;2023-05-10T07:34:07;18.00;66.70
32139;DHT22;18644;48.700;9.210;2023-05-10T07:36:34;18.10;66.70
32139;DHT22;18644;48.700;9.210;2023-05-10T07:39:01;18.20;66.90
32139;DHT22;18644;48.700;9.210;2023-05-10T07:41:28;18.30;66.90
32139;DHT22;18644;48.700;9.210;2023-05-10T07:43:56;18.40;66.70
32139;DHT22;18644;48.700;9.210;2023-05-10T07:46:23;18.50;66.70
32139;DHT22;18644;48.700;9.210;2023-05-10T07:48:50;18.50;66.40
32139;DHT22;18644;48.700;9.210;2023-05-10T07:51:17;18.60;66.20
32139;DHT22;18644;48.700;9.210;2023-05-10T07:53:44;18.60;65.90
32139;DHT22;18644;48.700;9.210;2023-05-10T07:56:21;18.80;65.70
32139;DHT22;18644;48.700;9.210;2023-05-10T07:58:50;18.80;65.30
32139;DHT22;18644;48.700;9.210;2023-05-10T08:01:19;18.90;65.30
32139;DHT22;18644;48.700;9.210;2023-05-10T08:03:46;18.90;65.10
32139;DHT22;18644;48.700;9.210;2023-05-10T08:06:13;19.00;64.60
32139;DHT22;18644;48.700;9.210;2023-05-10T08:08:40;19.00;64.50
32139;DHT22;18644;48.700;9.210;2023-05-10T08:11:08;19.00;64.60
32139;DHT22;18644;48.700;9.210;2023-05-10T08:13:35;19.00;64.40
32139;DHT22;18644;48.700;9.210;2023-05-10T08:16:02;19.10;64.50
32139;DHT22;18644;48.700;9.210;2023-05-10T08:18:30;19.10;64.40
32139;DHT22;18644;48.700;9.210;2023-05-10T08:20:57;19.20;64.30
32139;DHT22;18644;48.700;9.210;2023-05-10T08:23:24;19.20;64.10
32139;DHT22;18644;48.700;9.210;2023-05-10T08:25:51;19.20;63.90
32139;DHT22;18644;48.700;9.210;2023-05-10T08:28:18;19.30;64.20
32139;DHT22;18644;48.700;9.210;2023-05-10T08:30:45;19.30;64.00
32139;DHT22;18644;48.700;9.210;2023-05-10T08:33:12;19.40;63.90
32139;DHT22;18644;48.700;9.210;2023-05-10T08:35:40;19.50;63.60
32139;DHT22;18644;48.700;9.210;2023-05-10T08:38:07;19.50;63.30
32139;DHT22;18644;48.700;9.210;2023-05-10T08:40:34;19.50;63.10
32139;DHT22;18644;48.700;9.210;2023-05-10T08:43:05;19.50;62.70
32139;DHT22;18644;48.700;9.210;2023-05-10T08:45:38;19.60;62.20
32139;DHT22;18644;48.700;9.210;2023-05-10T08:48:06;19.60;62.20
32139;DHT22;18644;48.700;9.210;2023-05-10T08:50:36;19.60;62.20
32139;DHT22;18644;48.700;9.210;2023-05-10T08:53:06;19.60;61.80
32139;DHT22;18644;48.700;9.210;2023-05-10T08:55:36;19.60;61.40
32139;DHT22;18644;48.700;9.210;2023-05-10T08:58:04;19.50;61.40
32139;DHT22;18644;48.700;9.210;2023-05-10T09:00:31;19.50;61.50
32139;DHT22;18644;48.700;9.210;2023-05-10T09:02:59;19.60;61.20
32139;DHT22;18644;48.700;9.210;2023-05-10T09:05:26;19.60;60.80
32139;DHT22;18644;48.700;9.210;2023-05-10T09:07:53;19.60;60.70
32139;DHT22;18644;48.700;9.210;2023-05-10T09:10:23;19.60;60.30
32139;DHT22;18644;48.700;9.210;2023-05-10T09:12:53;19.50;60.00
32139;DHT22;18644;48.700;9.210;2023-05-10T09:15:22;19.50;59.90
32139;DHT22;18644;48.700;9.210;2023-05-10T09:17:49;19.50;60.10
32139;DHT22;18644;48.700;9.210;2023-05-10T09:20:16;19.50;60.70
32139;DHT22;18644;48.700;9.210;2023-05-10T09:22:43;19.50;61.10
32139;DHT22;18644;48.700;9.210;2023-05-10T09:25:12;19.60;60.90
32139;DHT22;18644;48.700;9.210;2023-05-10T09:27:45;19.60;60.60
32139;DHT22;18644;48.700;9.210;2023-05-10T09:30:15;19.70;60.40
32139;DHT22;18644;48.700;9.210;2023-05-10T09:32:45;19.70;60.10
32139;DHT22;18644;48.700;9.210;2023-05-10T09:35:16;19.70;59.80
32139;DHT22;18644;48.700;9.210;2023-05-10T09:37:45;19.80;59.70
32139;DHT22;18644;48.700;9.210;2023-05-10T09:40:14;19.80;59.50
32139;DHT22;18644;48.700;9.210;2023-05-10T09:42:54;19.80;59.40
32139;DHT22;18644;48.700;9.210;2023-05-10T09:45:24;19.80;58.60
32139;DHT22;18644;48.700;9.210;2023-05-10T09:47:52;19.70;58.60
32139;DHT22;18644;48.700;9.210;2023-05-10T09:50:20;19.70;58.90
32139;DHT22;18644;48.700;9.210;2023-05-10T09:52:49;19.70;59.10
32139;DHT22;18644;48.700;9.210;2023-05-10T09:55:19;19.70;59.10
32139;DHT22;18644;48.700;9.210;2023-05-10T09:57:49;19.70;59.20
32139;DHT22;18644;48.700;9.210;2023-05-10T10:00:17;19.70;59.40
32139;DHT22;18644;48.700;9.210;2023-05-10T10:02:47;19.80;59.50
32139;DHT22;18644;48.700;9.210;2023-05-10T10:05:14;19.90;59.20
32139;DHT22;18644;48.700;9.210;2023-05-10T10:07:41;19.90;59.10
32139;DHT22;18644;48.700;9.210;2023-05-10T10:10:09;20.00;58.50
32139;DHT22;18644;48.700;9.210;2023-05-10T10:12:39;20.00;58.50
32139;DHT22;18644;48.700;9.210;2023-05-10T10:15:09;20.10;58.50
32139;DHT22;18644;48.700;9.210;2023-05-10T10:17:36;20.20;58.30
32139;DHT22;18644;48.700;9.210;2023-05-10T10:20:06;20.20;58.30
32139;DHT22;18644;48.700;9.210;2023-05-10T10:22:34;20.30;58.40
32139;DHT22;18644;48.700;9.210;2023-05-10T10:25:01;20.40;58.40
32139;DHT22;18644;48.700;9.210;2023-05-10T10:27:35;20.40;58.20
32139;DHT22;18644;48.700;9.210;2023-05-10T10:30:16;20.50;57.90
32139;DHT22;18644;48.700;9.210;2023-05-10T10:33:01;20.60;57.20
32139;DHT22;18644;48.700;9.210;2023-05-10T10:35:38;20.70;56.70
32139;DHT22;18644;48.700;9.210;2023-05-10T10:38:07;20.80;56.90
32139;DHT22;18644;48.700;9.210;2023-05-10T10:40:35;20.90;56.90
32139;DHT22;18644;48.700;9.210;2023-05-10T10:43:20;21.00;56.90
32139;DHT22;18644;48.700;9.210;2023-05-10T10:46:09;21.10;56.10
32139;DHT22;18644;48.700;9.210;2023-05-10T10:48:38;21.20;55.50
32139;DHT22;18644;48.700;9.210;2023-05-10T10:51:05;21.20;55.50
32139;DHT22;18644;48.700;9.210;2023-05-10T10:53:32;21.20;54.30
32139;DHT22;18644;48.700;9.210;2023-05-10T10:56:06;21.10;53.40
32139;DHT22;18644;48.700;9.210;2023-05-10T10:58:35;21.00;52.60
32139;DHT22;18644;48.700;9.210;2023-05-10T11:01:16;20.90;53.70
32139;DHT22;18644;48.700;9.210;2023-05-10T11:04:17;20.80;53.90
32139;DHT22;18644;48.700;9.210;2023-05-10T11:06:45;20.80;54.00
32139;DHT22;18644;48.700;9.210;2023-05-10T11:09:12;20.80;53.80
32139;DHT22;18644;48.700;9.210;2023-05-10T11:11:51;20.70;53.30
32139;DHT22;18644;48.700;9.210;2023-05-10T11:14:21;20.60;52.20
32139;DHT22;18644;48.700;9.210;2023-05-10T11:16:50;20.40;51.70
32139;DHT22;18644;48.700;9.210;2023-05-10T11:19:18;20.20;51.00
32139;DHT22;18644;48.700;9.210;2023-05-10T11:21:47;20.00;52.30
32139;DHT22;18644;48.700;9.210;2023-05-10T11:24:16;19.80;52.70
32139;DHT22;18644;48.700;9.210;2023-05-10T11:26:44;19.70;52.90
32139;DHT22;18644;48.700;9.210;2023-05-10T11:29:12;19.60;52.80
32139;DHT22;18644;48.700;9.210;2023-05-10T11:31:43;19.50;52.80
32139;DHT22;18644;48.700;9.210;2023-05-10T11:34:23;19.40;52.70
32139;DHT22;18644;48.700;9.210;2023-05-10T11:36:51;19.30;53.00
32139;DHT22;18644;48.700;9.210;2023-05-10T11:39:19;19.20;53.30
32139;DHT22;18644;48.700;9.210;2023-05-10T11:41:49;19.00;53.40
32139;DHT22;18644;48.700;9.210;2023-05-10T11:44:16;18.90;53.80
32139;DHT22;18644;48.700;9.210;2023-05-10T11:46:43;18.80;54.20
32139;DHT22;18644;48.700;9.210;2023-05-10T11:49:10;18.70;54.50
32139;DHT22;18644;48.700;9.210;2023-05-10T11:51:39;18.60;54.90
32139;DHT22;18644;48.700;9.210;2023-05-10T11:54:08;18.60;55.30
32139;DHT22;18644;48.700;9.210;2023-05-10T11:56:36;18.50;55.60
32139;DHT22;18644;48.700;9.210;2023-05-10T11:59:03;18.50;55.80
32139;DHT22;18644;48.700;9.210;2023-05-10T12:01:31;18.50;56.00
32139;DHT22;18644;48.700;9.210;2023-05-10T12:03:59;18.50;56.00
32139;DHT22;18644;48.700;9.210;2023-05-10T12:06:30;18.50;56.00
32139;DHT22;18644;48.700;9.210;2023-05-10T12:09:01;18.50;56.00
32139;DHT22;18644;48.700;9.210;2023-05-10T12:11:32;18.50;56.00
32139;DHT22;18644;48.700;9.210;2023-05-10T12:14:04;18.50;56.20
32139;DHT22;18644;48.700;9.210;2023-05-10T12:16:32;18.50;56.20
32139;DHT22;18644;48.700;9.210;2023-05-10T12:19:00;18.60;56.60
32139;DHT22;18644;48.700;9.210;2023-05-10T12:21:29;18.60;56.80
32139;DHT22;18644;48.700;9.210;2023-05-10T12:24:00;18.80;57.30
32139;DHT22;18644;48.700;9.210;2023-05-10T12:26:29;18.90;57.10
32139;DHT22;18644;48.700;9.210;2023-05-10T12:29:12;19.00;57.20
32139;DHT22;18644;48.700;9.210;2023-05-10T12:31:50;19.20;57.40
32139;DHT22;18644;48.700;9.210;2023-05-10T12:34:26;19.20;57.10
32139;DHT22;18644;48.700;9.210;2023-05-10T12:36:54;19.40;56.90
32139;DHT22;18644;48.700;9.210;2023-05-10T12:39:22;19.40;56.40
32139;DHT22;18644;48.700;9.210;2023-05-10T12:41:48;19.50;56.50
32139;DHT22;18644;48.700;9.210;2023-05-10T12:44:15;19.60;55.70
32139;DHT22;18644;48.700;9.210;2023-05-10T12:46:42;19.60;55.80
32139;DHT22;18644;48.700;9.210;2023-05-10T12:49:09;19.60;55.90
32139;DHT22;18644;48.700;9.210;2023-05-10T12:51:36;19.60;55.90
32139;DHT22;18644;48.700;9.210;2023-05-10T12:54:04;19.60;55.70
32139;DHT22;18644;48.700;9.210;2023-05-10T12:56:31;19.60;55.40
32139;DHT22;18644;48.700;9.210;2023-05-10T12:58:58;19.60;55.20
32139;DHT22;18644;48.700;9.210;2023-05-10T13:01:25;19.60;55.00
32139;DHT22;18644;48.700;9.210;2023-05-10T13:03:52;19.50;54.70
32139;DHT22;18644;48.700;9.210;2023-05-10T13:06:19;19.50;55.00
32139;DHT22;18644;48.700;9.210;2023-05-10T13:08:46;19.50;55.20
32139;DHT22;18644;48.700;9.210;2023-05-10T13:11:14;19.50;55.10
32139;DHT22;18644;48.700;9.210;2023-05-10T13:13:41;19.60;55.10
32139;DHT22;18644;48.700;9.210;2023-05-10T13:16:08;19.60;54.70
32139;DHT22;18644;48.700;9.210;2023-05-10T13:18:35;19.60;54.10
32139;DHT22;18644;48.700;9.210;2023-05-10T13:21:02;19.70;54.10
32139;DHT22;18644;48.700;9.210;2023-05-10T13:23:30;19.70;53.70
32139;DHT22;18644;48.700;9.210;2023-05-10T13:25:57;19.80;53.50
32139;DHT22;18644;48.700;9.210;2023-05-10T13:28:25;19.80;53.70
32139;DHT22;18644;48.700;9.210;2023-05-10T13:30:52;19.90;53.50
32139;DHT22;18644;48.700;9.210;2023-05-10T13:33:19;20.00;53.40
32139;DHT22;18644;48.700;9.210;2023-05-10T13:35:46;20.00;53.30
32139;DHT22;18644;48.700;9.210;2023-05-10T13:38:13;20.10;53.30
32139;DHT22;18644;48.700;9.210;2023-05-10T13:40:40;20.20;53.10
32139;DHT22;18644;48.700;9.210;2023-05-10T13:43:07;20.20;52.90
32139;DHT22;18644;48.700;9.210;2023-05-10T13:45:35;20.30;53.20
32139;DHT22;18644;48.700;9.210;2023-05-10T13:48:02;20.40;53.30
32139;DHT22;18644;48.700;9.210;2023-05-10T13:50:30;20.40;53.00
32139;DHT22;18644;48.700;9.210;2023-05-10T13:52:56;20.50;52.30
32139;DHT22;18644;48.700;9.210;2023-05-10T13:55:23;20.50;52.10
32139;DHT22;18644;48.700;9.210;2023-05-10T13:57:50;20.60;52.00
32139;DHT22;18644;48.700;9.210;2023-05-10T14:00:17;20.60;51.80
32139;DHT22;18644;48.700;9.210;2023-05-10T14:02:46;20.60;50.40
32139;DHT22;18644;48.700;9.210;2023-05-10T14:05:13;20.70;51.00
32139;DHT22;18644;48.700;9.210;2023-05-10T14:07:40;20.70;51.10
32139;DHT22;18644;48.700;9.210;2023-05-10T14:10:07;20.60;50.80
32139;DHT22;18644;48.700;9.210;2023-05-10T14:12:34;20.60;50.90
32139;DHT22;18644;48.700;9.210;2023-05-10T14:15:01;20.60;51.00
32139;DHT22;18644;48.700;9.210;2023-05-10T14:17:31;20.60;51.60
32139;DHT22;18644;48.700;9.210;2023-05-10T14:19:59;20.60;51.70
32139;DHT22;18644;48.700;9.210;2023-05-10T14:22:26;20.60;51.50
32139;DHT22;18644;48.700;9.210;2023-05-10T14:24:53;20.60;51.50
32139;DHT22;18644;48.700;9.210;2023-05-10T14:27:19;20.60;51.50
32139;DHT22;18644;48.700;9.210;2023-05-10T14:29:47;20.70;52.00
32139;DHT22;18644;48.700;9.210;2023-05-10T14:32:14;20.70;52.20
32139;DHT22;18644;48.700;9.210;2023-05-10T14:34:41;20.70;52.50
32139;DHT22;18644;48.700;9.210;2023-05-10T14:37:09;20.80;53.30
32139;DHT22;18644;48.700;9.210;2023-05-10T14:39:37;20.90;52.40
32139;DHT22;18644;48.700;9.210;2023-05-10T14:42:04;21.00;51.80
32139;DHT22;18644;48.700;9.210;2023-05-10T14:44:31;21.00;51.10
32139;DHT22;18644;48.700;9.210;2023-05-10T14:46:58;21.00;50.80
32139;DHT22;18644;48.700;9.210;2023-05-10T14:49:25;21.00;51.00
32139;DHT22;18644;48.700;9.210;2023-05-10T14:51:52;21.00;50.40
32139;DHT22;18644;48.700;9.210;2023-05-10T14:54:20;21.00;50.60
32139;DHT22;18644;48.700;9.210;2023-05-10T14:56:47;21.10;50.40
32139;DHT22;18644;48.700;9.210;2023-05-10T14:59:15;21.10;49.40
32139;DHT22;18644;48.700;9.210;2023-05-10T15:01:42;21.00;49.10
32139;DHT22;18644;48.700;9.210;2023-05-10T15:04:08;21.00;48.80
32139;DHT22;18644;48.700;9.210;2023-05-10T15:06:35;20.90;49.00
32139;DHT22;18644;48.700;9.210;2023-05-10T15:09:02;20.90;49.20
32139;DHT22;18644;48.700;9.210;2023-05-10T15:11:31;20.90;49.10
32139;DHT22;18644;48.700;9.210;2023-05-10T15:13:58;20.80;49.10
32139;DHT22;18644;48.700;9.210;2023-05-10T15:16:24;20.80;49.00
32139;DHT22;18644;48.700;9.210;2023-05-10T15:18:51;20.80;49.20
32139;DHT22;18644;48.700;9.210;2023-05-10T15:21:18;20.70;49.50
32139;DHT22;18644;48.700;9.210;2023-05-10T15:23:45;20.80;49.60
32139;DHT22;18644;48.700;9.210;2023-05-10T15:26:12;20.80;49.70
32139;DHT22;18644;48.700;9.210;2023-05-10T15:28:41;20.80;50.10
32139;DHT22;18644;48.700;9.210;2023-05-10T15:31:08;20.70;50.60
32139;DHT22;18644;48.700;9.210;2023-05-10T15:33:37;20.80;50.70
32139;DHT22;18644;48.700;9.210;2023-05-10T15:36:04;20.80;50.70
32139;DHT22;18644;48.700;9.210;2023-05-10T15:38:32;20.90;50.70
32139;DHT22;18644;48.700;9.210;2023-05-10T15:40:58;21.00;50.50
32139;DHT22;18644;48.700;9.210;2023-05-10T15:43:25;21.00;50.50